Time;durP1;ratioP1;P1;durP2;ratioP2;P2;SDS_P1;SDS_P2;PMS_P1;PMS_P2;Temp;Humidity;BMP_temperature;BMP_pressure;BME280_temperature;BME280_humidity;BME280_pressure;Samples;Min_cycle;Max_cycle;Signal;HPM_P1;HPM_P2
2022/07/14 00:01:14;;;;;;;8.82;1.65;;;;;;;13.29;87.74;101817.63;4990497;28;20182;-47
2022/07/14 00:03:40;;;;;;;4.90;1.48;;;;;;;13.32;87.96;101817.56;4990678;28;20686;-45
2022/07/14 00:06:05;;;;;;;6.68;1.85;;;;;;;13.28;87.83;101813.16;4990698;28;20180;-48
2022/07/14 00:08:31;;;;;;;6.60;1.95;;;;;;;13.33;87.92;101813.91;4990476;28;20228;-48
2022/07/14 00:10:56;;;;;;;9.52;1.90;;;;;;;13.31;87.46;101815.78;4990859;28;20169;-47
2022/07/14 00:13:21;;;;;;;12.43;2.20;;;;;;;12.95;88.18;101816.03;4989857;28;20200;-46
2022/07/14 00:15:47;;;;;;;9.13;1.92;;;;;;;12.98;88.86;101816.81;4990837;28;20169;-46
2022/07/14 00:18:12;;;;;;;5.47;1.10;;;;;;;13.13;89.18;101818.13;4990603;28;20193;-45
2022/07/14 00:20:38;;;;;;;9.00;1.67;;;;;;;13.09;89.09;101807.50;4990222;28;20289;-45
2022/07/14 00:23:04;;;;;;;6.57;1.70;;;;;;;13.15;89.10;101805.50;4990245;28;20545;-46
2022/07/14 00:25:29;;;;;;;8.88;1.90;;;;;;;13.23;88.57;101799.88;4990307;28;20195;-47
2022/07/14 00:27:55;;;;;;;12.57;2.38;;;;;;;13.22;88.59;101787.34;4990523;28;20181;-45
2022/07/14 00:30:21;;;;;;;5.57;1.48;;;;;;;13.20;88.23;101782.00;4990624;28;20176;-46
2022/07/14 00:32:47;;;;;;;9.68;1.80;;;;;;;13.26;88.11;101782.72;4990167;28;20588;-48
2022/07/14 00:35:13;;;;;;;11.05;2.60;;;;;;;13.05;87.49;101774.44;4989773;28;20185;-47
2022/07/14 00:37:39;;;;;;;6.25;1.40;;;;;;;13.01;88.19;101779.97;4990310;28;20166;-51
2022/07/14 00:40:06;;;;;;;7.10;1.60;;;;;;;13.11;88.40;101776.06;4973107;28;20209;-50
2022/07/14 00:42:38;;;;;;;6.97;1.48;;;;;;;13.17;88.10;101768.66;4990488;28;20181;-51
2022/07/14 00:45:13;;;;;;;5.28;1.60;;;;;;;12.98;88.21;101756.75;4993037;28;20708;-54
2022/07/14 00:47:39;;;;;;;4.03;1.30;;;;;;;13.08;88.68;101758.22;4994230;28;20228;-50
2022/07/14 00:50:07;;;;;;;5.85;1.70;;;;;;;13.05;88.41;101757.41;4976652;28;20190;-51
2022/07/14 00:52:33;;;;;;;10.20;2.67;;;;;;;12.91;88.51;101758.75;4976738;28;20705;-52
2022/07/14 00:54:59;;;;;;;7.28;1.50;;;;;;;13.03;88.67;101753.91;4993613;28;20256;-49
2022/07/14 00:57:25;;;;;;;6.60;1.85;;;;;;;13.03;88.61;101756.59;4993951;28;20175;-48
2022/07/14 00:59:51;;;;;;;11.93;2.20;;;;;;;12.58;88.81;101747.31;4976749;28;20652;-49
2022/07/14 01:02:18;;;;;;;7.20;1.75;;;;;;;12.59;90.46;101746.34;4993992;28;20248;-51
2022/07/14 01:04:49;;;;;;;9.35;2.08;;;;;;;12.49;90.74;101753.84;4993767;28;20260;-49
2022/07/14 01:07:17;;;;;;;6.40;1.83;;;;;;;12.72;90.94;101758.47;4976814;28;20166;-49
2022/07/14 01:09:43;;;;;;;9.48;2.13;;;;;;;12.65;90.52;101747.97;4993328;28;20205;-50
2022/07/14 01:12:10;;;;;;;11.07;2.80;;;;;;;12.60;90.40;101745.44;4994323;28;20689;-51
2022/07/14 01:14:37;;;;;;;8.05;2.30;;;;;;;12.61;91.02;101746.31;4975736;28;20174;-51
2022/07/14 01:17:04;;;;;;;6.22;2.15;;;;;;;12.56;91.17;101738.41;4976326;28;20233;-48
2022/07/14 01:19:30;;;;;;;6.55;2.00;;;;;;;12.43;91.14;101742.41;4993948;28;20696;-51
2022/07/14 01:21:56;;;;;;;8.30;2.08;;;;;;;12.47;91.31;101727.94;4976090;28;20185;-48
2022/07/14 01:24:23;;;;;;;6.05;1.77;;;;;;;12.56;91.42;101733.03;4993029;28;20321;-55
2022/07/14 01:26:49;;;;;;;5.35;1.85;;;;;;;12.33;91.60;101736.44;4993587;28;20180;-51
2022/07/14 01:29:15;;;;;;;9.57;1.80;;;;;;;12.29;91.98;101742.84;4976185;28;20556;-48
2022/07/14 01:31:41;;;;;;;6.38;1.70;;;;;;;12.33;92.42;101739.13;4976263;28;20268;-48
2022/07/14 01:34:07;;;;;;;6.85;1.90;;;;;;;12.26;91.96;101748.28;4992659;28;20169;-49
2022/07/14 01:36:33;;;;;;;4.65;1.45;;;;;;;12.36;92.55;101750.66;4993529;28;20174;-50
2022/07/14 01:38:58;;;;;;;4.80;1.80;;;;;;;12.33;92.23;101758.81;4993301;28;20197;-51
2022/07/14 01:41:24;;;;;;;7.95;1.80;;;;;;;12.45;92.02;101759.38;4959793;28;20648;-51
2022/07/14 01:43:50;;;;;;;4.82;1.55;;;;;;;12.43;91.72;101759.41;4961186;28;20403;-51
2022/07/14 01:46:16;;;;;;;12.07;2.40;;;;;;;12.39;91.45;101754.19;4990829;28;20170;-48
2022/07/14 01:48:41;;;;;;;6.80;1.45;;;;;;;12.13;92.30;101761.22;4975688;28;20224;-50
2022/07/14 01:51:08;;;;;;;9.68;2.00;;;;;;;12.20;92.66;101762.81;4975573;28;20177;-49
2022/07/14 01:53:34;;;;;;;10.27;1.90;;;;;;;12.24;92.67;101771.66;4969358;28;20261;-50
2022/07/14 01:56:01;;;;;;;11.35;1.85;;;;;;;12.04;93.19;101780.28;4965044;28;20206;-51
2022/07/14 01:58:27;;;;;;;6.78;1.65;;;;;;;12.10;93.47;101786.38;4975502;28;20419;-50
2022/07/14 02:03:37;;;;;;;7.53;1.73;;;;;;;12.14;93.66;101777.31;4974985;28;20442;-50
2022/07/14 02:06:03;;;;;;;8.38;1.75;;;;;;;12.10;93.28;101766.69;4975163;28;20184;-54
2022/07/14 02:08:29;;;;;;;8.52;1.63;;;;;;;12.23;93.15;101768.09;4974596;28;20209;-50
2022/07/14 02:13:39;;;;;;;5.55;1.80;;;;;;;12.22;93.04;101766.31;4977762;28;20177;-49
2022/07/14 02:16:08;;;;;;;8.43;1.73;;;;;;;12.08;92.77;101757.78;4992438;28;20185;-48
2022/07/14 02:18:34;;;;;;;7.25;1.67;;;;;;;12.21;93.19;101744.88;4992726;28;20201;-53
2022/07/14 02:21:00;;;;;;;8.00;1.50;;;;;;;12.25;93.30;101738.50;4973974;28;20209;-52
2022/07/14 02:23:26;;;;;;;6.50;1.27;;;;;;;12.24;93.17;101736.72;4992521;28;20507;-50
2022/07/14 02:25:51;;;;;;;7.80;1.83;;;;;;;12.26;92.72;101734.88;5007563;28;20189;-51
2022/07/14 02:28:17;;;;;;;6.60;1.58;;;;;;;12.13;92.33;101739.72;5007365;28;20292;-50
2022/07/14 02:30:45;;;;;;;7.05;1.77;;;;;;;12.19;92.96;101731.50;4975302;28;20173;-51
2022/07/14 02:33:10;;;;;;;4.35;1.20;;;;;;;12.02;93.03;101734.66;4991859;28;20501;-51
2022/07/14 02:35:36;;;;;;;5.78;1.63;;;;;;;12.03;93.73;101728.38;4992635;28;20162;-51
2022/07/14 02:38:02;;;;;;;6.90;2.08;;;;;;;12.03;93.75;101727.53;4992524;28;20166;-50
2022/07/14 02:40:28;;;;;;;4.65;1.50;;;;;;;12.15;93.74;101727.13;4992454;28;20194;-52
2022/07/14 02:42:54;;;;;;;6.18;1.50;;;;;;;12.11;93.03;101733.53;4974289;28;20170;-53
2022/07/14 02:45:20;;;;;;;4.13;1.45;;;;;;;12.13;93.04;101724.50;4991927;28;20181;-50
2022/07/14 02:47:45;;;;;;;5.15;1.73;;;;;;;12.14;92.85;101731.63;5007272;28;20182;-53
2022/07/14 02:50:11;;;;;;;5.72;1.70;;;;;;;12.07;92.54;101739.91;4974622;28;20204;-53
2022/07/14 02:52:39;;;;;;;6.03;1.30;;;;;;;12.05;92.58;101741.78;5006940;28;20184;-50
2022/07/14 02:55:06;;;;;;;7.07;1.80;;;;;;;11.91;92.40;101736.81;5006311;28;20189;-49
2022/07/14 02:57:33;;;;;;;5.10;1.45;;;;;;;11.98;92.71;101735.69;4974101;28;20185;-52
2022/07/14 02:59:58;;;;;;;5.30;1.13;;;;;;;11.93;92.87;101735.81;5006433;28;20223;-50
2022/07/14 03:02:25;;;;;;;4.90;1.45;;;;;;;11.80;93.12;101737.06;5006540;28;20532;-50
2022/07/14 03:04:51;;;;;;;5.18;1.38;;;;;;;11.85;93.42;101736.94;4991062;28;20545;-50
2022/07/14 03:07:17;;;;;;;5.50;1.40;;;;;;;11.88;93.75;101745.84;4990836;28;20189;-50
2022/07/14 03:09:42;;;;;;;11.20;1.98;;;;;;;11.69;93.43;101739.19;4973826;28;20197;-49
2022/07/14 03:12:08;;;;;;;5.43;1.30;;;;;;;11.83;93.88;101738.78;4973408;28;20193;-52
2022/07/14 03:14:37;;;;;;;5.03;1.40;;;;;;;11.81;94.07;101735.28;5005792;28;20181;-48
2022/07/14 03:17:03;;;;;;;5.95;1.70;;;;;;;11.83;93.72;101737.00;4991336;28;20177;-51
2022/07/14 03:19:29;;;;;;;6.55;1.30;;;;;;;11.78;93.56;101722.81;5006286;28;20197;-51
2022/07/14 03:21:55;;;;;;;2.80;1.17;;;;;;;11.92;93.60;101726.03;4973576;28;20180;-49
2022/07/14 03:24:21;;;;;;;4.68;1.73;;;;;;;11.87;93.22;101740.47;4972350;28;20269;-50
2022/07/14 03:26:47;;;;;;;6.38;1.63;;;;;;;11.86;93.19;101739.59;4973764;28;20185;-49
2022/07/14 03:29:13;;;;;;;4.78;1.38;;;;;;;11.95;93.25;101741.16;4973414;28;20214;-49
2022/07/14 03:31:38;;;;;;;6.85;2.00;;;;;;;11.92;92.99;101735.91;4973720;28;20461;-48
2022/07/14 03:34:08;;;;;;;6.85;1.30;;;;;;;11.97;93.15;101744.69;4972846;28;20228;-50
2022/07/14 03:36:36;;;;;;;7.72;1.50;;;;;;;11.88;93.32;101744.97;5005982;28;20170;-51
2022/07/14 03:39:03;;;;;;;10.07;1.83;;;;;;;11.83;94.20;101741.47;5005483;28;20207;-51
2022/07/14 03:41:29;;;;;;;5.55;1.60;;;;;;;11.91;94.60;101747.53;4973145;28;20216;-52
2022/07/14 03:43:55;;;;;;;5.93;1.55;;;;;;;11.77;94.84;101747.91;4982454;28;20185;-52
2022/07/14 03:46:21;;;;;;;5.30;1.40;;;;;;;11.79;95.27;101746.06;4973052;28;20228;-49
2022/07/14 03:49:01;;;;;;;6.50;1.65;;;;;;;11.89;95.59;101747.56;4972723;28;20574;-49
2022/07/14 03:51:27;;;;;;;7.03;1.63;;;;;;;11.86;95.50;101744.09;4973203;28;20178;-48
2022/07/14 03:53:54;;;;;;;6.85;1.70;;;;;;;11.82;96.20;101745.09;4965730;28;20276;-52
2022/07/14 03:56:20;;;;;;;5.22;1.60;;;;;;;11.86;96.51;101749.47;4972969;28;20189;-51
2022/07/14 03:58:47;;;;;;;11.00;2.00;;;;;;;11.85;96.83;101753.03;4973325;28;20220;-50
2022/07/14 04:01:15;;;;;;;6.45;1.58;;;;;;;11.87;97.23;101732.41;4973012;28;20205;-50
2022/07/14 04:03:43;;;;;;;7.95;1.50;;;;;;;11.90;97.04;101752.03;4972918;28;20284;-49
2022/07/14 04:06:08;;;;;;;4.72;1.40;;;;;;;11.97;96.74;101746.50;4990487;28;20256;-51
2022/07/14 04:08:34;;;;;;;6.70;1.40;;;;;;;11.92;96.63;101760.06;4973387;28;20610;-48
2022/07/14 04:11:02;;;;;;;9.68;2.10;;;;;;;11.95;96.16;101752.78;4973188;28;20181;-49
2022/07/14 04:13:29;;;;;;;7.55;1.40;;;;;;;11.99;96.32;101756.25;4972661;28;20569;-48
2022/07/14 04:15:55;;;;;;;5.90;1.42;;;;;;;12.04;95.86;101745.38;4973314;28;20177;-53
2022/07/14 04:18:21;;;;;;;6.32;1.65;;;;;;;12.11;95.42;101752.31;4973205;28;20193;-51
2022/07/14 04:20:50;;;;;;;7.82;1.52;;;;;;;12.14;95.02;101746.88;4972728;28;20213;-49
2022/07/14 04:23:17;;;;;;;7.40;1.30;;;;;;;12.20;94.95;101757.44;4972773;28;20554;-49
2022/07/14 04:25:43;;;;;;;10.73;1.50;;;;;;;12.27;94.94;101750.06;4990006;28;20180;-48
2022/07/14 04:28:08;;;;;;;7.63;1.40;;;;;;;12.22;94.54;101760.06;4973046;28;20695;-49
2022/07/14 04:30:34;;;;;;;4.03;1.42;;;;;;;12.33;94.33;101755.25;4973325;28;20196;-49
2022/07/14 04:33:00;;;;;;;3.97;1.33;;;;;;;12.21;93.78;101753.81;4972457;28;20248;-51
2022/07/14 04:35:25;;;;;;;6.03;1.33;;;;;;;12.35;93.55;101772.19;4990183;28;20244;-52
2022/07/14 04:37:51;;;;;;;6.55;1.42;;;;;;;12.41;93.28;101768.44;4972985;28;20181;-48
2022/07/14 04:40:24;;;;;;;5.85;1.40;;;;;;;12.41;92.73;101761.25;4972844;28;20193;-50
2022/07/14 04:42:50;;;;;;;6.03;1.20;;;;;;;12.40;92.99;101758.63;4973053;28;20200;-49
2022/07/14 04:45:16;;;;;;;6.20;1.80;;;;;;;12.50;92.79;101754.72;4972176;28;20546;-49
2022/07/14 04:47:42;;;;;;;6.38;1.30;;;;;;;12.53;92.13;101750.13;4972446;28;20185;-50
2022/07/14 04:52:54;;;;;;;2.95;1.20;;;;;;;12.60;91.61;101763.38;4972484;28;20178;-52
2022/07/14 04:55:39;;;;;;;5.95;1.13;;;;;;;12.65;91.25;101756.06;4990386;28;20486;-48
2022/07/14 04:58:40;;;;;;;6.13;1.00;;;;;;;12.78;91.05;101752.91;4973808;28;20205;-49
2022/07/14 05:01:06;;;;;;;3.72;0.90;;;;;;;12.77;91.05;101761.91;4972605;28;20691;-48
2022/07/14 05:03:36;;;;;;;5.30;1.48;;;;;;;12.81;90.54;101764.50;4972257;28;20166;-49
2022/07/14 05:06:02;;;;;;;6.25;1.05;;;;;;;12.95;89.83;101751.47;4972590;28;20277;-49
2022/07/14 05:08:28;;;;;;;4.72;1.10;;;;;;;13.11;89.62;101760.78;4990086;28;20284;-49
2022/07/14 05:10:54;;;;;;;4.35;1.30;;;;;;;13.24;89.57;101750.47;4972477;28;20221;-49
2022/07/14 05:13:19;;;;;;;4.95;1.05;;;;;;;13.26;88.61;101755.81;4989848;28;20194;-50
2022/07/14 05:15:45;;;;;;;4.78;1.00;;;;;;;13.24;88.66;101750.47;4972574;28;20269;-52
2022/07/14 05:18:11;;;;;;;3.75;1.23;;;;;;;13.50;88.37;101748.72;4972389;28;20296;-54
2022/07/14 05:20:37;;;;;;;3.63;1.00;;;;;;;13.51;88.17;101755.84;4972601;28;20209;-50
2022/07/14 05:23:03;;;;;;;3.63;1.38;;;;;;;13.54;87.04;101748.56;4971930;28;20248;-49
2022/07/14 05:25:29;;;;;;;3.78;1.00;;;;;;;13.62;86.41;101750.97;4972336;28;20512;-49
2022/07/14 05:27:55;;;;;;;6.72;1.58;;;;;;;13.76;86.23;101751.34;4972435;28;20177;-48
2022/07/14 05:30:25;;;;;;;2.58;1.10;;;;;;;13.72;86.56;101759.59;4974129;28;20170;-51
2022/07/14 05:32:53;;;;;;;6.03;1.20;;;;;;;13.90;86.22;101749.97;4975821;28;20189;-51
2022/07/14 05:35:19;;;;;;;4.15;1.10;;;;;;;13.67;86.75;101749.00;4975483;28;20181;-51
2022/07/14 05:37:46;;;;;;;7.78;1.63;;;;;;;13.79;86.49;101744.97;4975612;28;20188;-50
2022/07/14 05:40:12;;;;;;;3.30;1.25;;;;;;;13.99;86.28;101737.03;4975843;28;20205;-52
2022/07/14 05:42:37;;;;;;;5.93;1.27;;;;;;;14.20;85.57;101742.53;4959093;28;20205;-50
2022/07/14 05:45:04;;;;;;;4.13;1.27;;;;;;;14.13;85.05;101735.63;4975460;28;20224;-49
2022/07/14 05:47:30;;;;;;;5.80;1.15;;;;;;;14.24;85.19;101743.31;4975557;28;20173;-49
2022/07/14 05:49:55;;;;;;;6.03;0.90;;;;;;;14.35;84.65;101741.94;4975609;28;20256;-49
2022/07/14 05:52:21;;;;;;;2.92;1.00;;;;;;;14.31;84.28;101736.72;4974548;28;20209;-51
2022/07/14 05:54:47;;;;;;;8.02;1.13;;;;;;;14.45;83.40;101742.44;4974134;28;20185;-50
2022/07/14 05:57:15;;;;;;;5.07;1.20;;;;;;;14.26;83.44;101739.59;4975093;28;20581;-49
2022/07/14 05:59:41;;;;;;;5.45;1.10;;;;;;;14.41;83.36;101746.22;4974630;28;20217;-49
2022/07/14 06:02:07;;;;;;;4.70;1.13;;;;;;;14.39;83.11;101742.69;4975449;28;20186;-50
2022/07/14 06:04:33;;;;;;;5.07;1.00;;;;;;;14.47;83.62;101753.16;4974725;28;20656;-48
2022/07/14 06:07:00;;;;;;;6.32;1.05;;;;;;;14.49;83.14;101752.16;4974658;28;20641;-47
2022/07/14 06:09:26;;;;;;;4.15;0.98;;;;;;;14.91;82.55;101746.00;4992761;28;20201;-50
2022/07/14 06:11:51;;;;;;;2.22;0.77;;;;;;;14.97;81.55;101752.94;4975075;28;20181;-54
2022/07/14 06:14:18;;;;;;;2.78;1.10;;;;;;;15.28;81.12;101741.72;4974328;28;20260;-51
2022/07/14 06:16:44;;;;;;;7.40;1.08;;;;;;;15.27;80.25;101749.91;4957489;28;20260;-50
2022/07/14 06:19:09;;;;;;;5.70;1.35;;;;;;;15.59;79.93;101743.06;4975033;28;20689;-48
2022/07/14 06:21:37;;;;;;;3.55;0.65;;;;;;;15.48;80.62;101751.69;4974911;28;20684;-47
2022/07/14 06:24:04;;;;;;;3.30;1.00;;;;;;;15.78;79.58;101737.75;4974268;28;20721;-48
2022/07/14 06:26:29;;;;;;;7.22;1.23;;;;;;;15.82;77.82;101736.66;4974773;28;20188;-50
2022/07/14 06:28:55;;;;;;;5.18;0.90;;;;;;;16.22;78.54;101726.69;4975523;28;20205;-48
2022/07/14 06:31:20;;;;;;;3.20;0.77;;;;;;;16.41;76.68;101729.41;4975555;28;20173;-49
2022/07/14 06:33:46;;;;;;;2.65;0.90;;;;;;;16.48;76.43;101726.31;4975156;28;20664;-50
2022/07/14 06:36:31;;;;;;;5.78;0.80;;;;;;;16.64;76.40;101714.78;4975937;28;20178;-47
2022/07/14 06:38:58;;;;;;;4.40;1.10;;;;;;;16.89;75.45;101718.00;4992956;28;20212;-46
2022/07/14 06:41:23;;;;;;;5.22;1.10;;;;;;;16.87;73.88;101719.06;4992024;28;20217;-47
2022/07/14 06:43:50;;;;;;;4.43;1.00;;;;;;;17.24;72.29;101715.31;4975292;28;20269;-49
2022/07/14 06:46:17;;;;;;;3.20;0.95;;;;;;;16.98;72.36;101705.84;4992970;28;20201;-47
2022/07/14 06:48:43;;;;;;;4.10;0.90;;;;;;;17.29;70.98;101715.09;4975396;28;20245;-48
2022/07/14 06:51:09;;;;;;;4.88;1.08;;;;;;;16.50;72.48;101718.13;4992697;28;20169;-49
2022/07/14 06:53:35;;;;;;;3.58;0.70;;;;;;;17.09;70.68;101710.72;4992654;28;20643;-46
2022/07/14 06:56:01;;;;;;;7.43;0.82;;;;;;;17.25;71.68;101695.44;4992698;28;20253;-46
2022/07/14 06:58:26;;;;;;;3.72;1.15;;;;;;;17.45;70.78;101707.06;4992777;28;20197;-48
2022/07/14 07:00:52;;;;;;;4.47;1.13;;;;;;;17.36;70.35;101693.97;4992674;28;20636;-50
2022/07/14 07:03:17;;;;;;;2.22;0.80;;;;;;;17.27;69.49;101696.22;4992464;28;20217;-48
2022/07/14 07:08:28;;;;;;;3.40;0.95;;;;;;;17.86;67.62;101696.72;4992461;28;20305;-48
2022/07/14 07:10:56;;;;;;;2.65;0.90;;;;;;;18.54;67.70;101690.16;4992367;28;20170;-48
2022/07/14 07:13:21;;;;;;;4.60;0.77;;;;;;;18.14;64.47;101683.44;4992198;28;20178;-49
2022/07/14 07:15:47;;;;;;;2.22;0.73;;;;;;;18.43;64.87;101684.47;4974347;28;20325;-45
2022/07/14 07:18:12;;;;;;;4.68;0.50;;;;;;;17.91;64.89;101691.91;4992486;28;20219;-45
2022/07/14 07:20:38;;;;;;;2.70;0.80;;;;;;;18.26;64.95;101686.34;4991999;28;20657;-47
2022/07/14 07:23:04;;;;;;;3.88;1.00;;;;;;;18.89;64.41;101684.53;4992122;28;20537;-47
2022/07/14 07:25:30;;;;;;;6.05;1.08;;;;;;;18.89;62.97;101684.53;4992267;28;20551;-49
2022/07/14 07:27:56;;;;;;;2.28;0.60;;;;;;;19.04;62.73;101680.91;4991993;28;20181;-47
2022/07/14 07:30:21;;;;;;;4.32;0.70;;;;;;;19.59;62.55;101678.47;4992194;28;20181;-46
2022/07/14 07:32:47;;;;;;;2.22;0.73;;;;;;;18.44;62.70;101684.41;4992130;28;20172;-48
2022/07/14 07:35:12;;;;;;;3.95;0.55;;;;;;;18.68;63.28;101682.09;4991683;28;20218;-47
2022/07/14 07:37:38;;;;;;;4.95;0.75;;;;;;;19.17;62.06;101670.16;4992111;28;20217;-45
2022/07/14 07:40:04;;;;;;;3.35;0.90;;;;;;;18.93;62.65;101670.72;4991678;28;20308;-46
2022/07/14 07:42:30;;;;;;;2.33;0.57;;;;;;;18.54;61.56;101673.88;4991947;28;20220;-46
2022/07/14 07:44:56;;;;;;;3.50;0.77;;;;;;;19.30;61.51;101676.59;4991787;28;20194;-44
2022/07/14 07:47:24;;;;;;;1.67;0.60;;;;;;;18.98;63.08;101683.09;4991987;28;20189;-45
2022/07/14 07:49:51;;;;;;;2.00;0.50;;;;;;;19.39;62.52;101666.13;4991080;28;20705;-45
2022/07/14 07:52:17;;;;;;;3.55;0.75;;;;;;;19.67;62.04;101660.72;4990789;28;20275;-46
2022/07/14 07:54:44;;;;;;;3.50;0.60;;;;;;;19.65;59.84;101661.78;4990881;28;20301;-46
2022/07/14 07:57:11;;;;;;;2.15;0.50;;;;;;;19.91;59.69;101650.16;4991106;28;20176;-45
2022/07/14 07:59:37;;;;;;;2.83;0.65;;;;;;;19.71;58.47;101653.28;4990460;28;20712;-47
2022/07/14 08:02:02;;;;;;;2.85;0.70;;;;;;;19.37;59.72;101644.47;4991162;28;20178;-45
2022/07/14 08:04:28;;;;;;;1.70;0.65;;;;;;;19.76;58.92;101649.28;4972228;28;20560;-46
2022/07/14 08:06:53;;;;;;;3.60;0.65;;;;;;;19.63;57.78;101640.13;4973793;28;20209;-47
2022/07/14 08:09:19;;;;;;;1.33;0.45;;;;;;;20.05;58.48;101637.50;4991504;28;20324;-45
2022/07/14 08:11:44;;;;;;;1.48;0.50;;;;;;;20.82;56.85;101641.44;4991222;28;20197;-44
2022/07/14 08:16:56;;;;;;;1.95;0.90;;;;;;;20.85;55.46;101646.69;4991264;28;20185;-45
2022/07/14 08:19:22;;;;;;;3.33;1.33;;;;;;;20.37;56.24;101648.97;4991387;28;20206;-46
2022/07/14 08:21:47;;;;;;;1.65;0.47;;;;;;;20.42;55.96;101638.66;4991726;28;20494;-47
2022/07/14 08:24:13;;;;;;;2.28;0.75;;;;;;;20.83;55.90;101632.28;4990926;28;20201;-47
2022/07/14 08:26:39;;;;;;;5.95;0.88;;;;;;;;;;4991082;28;20656;-44
2022/07/14 08:29:06;;;;;;;3.03;0.60;;;;;;;20.60;56.24;101619.38;4991265;28;20201;-44
2022/07/14 08:31:32;;;;;;;3.60;0.77;;;;;;;20.32;56.54;101632.97;4991023;28;20174;-48
2022/07/14 08:33:57;;;;;;;5.30;0.80;;;;;;;20.55;55.71;101623.25;4991090;28;20280;-46
2022/07/14 08:36:23;;;;;;;2.10;0.60;;;;;;;20.97;55.94;101620.47;4991120;28;20233;-45
2022/07/14 08:38:48;;;;;;;5.22;0.80;;;;;;;21.13;56.36;101622.97;4991127;28;20630;-47
2022/07/14 08:41:14;;;;;;;2.08;0.70;;;;;;;21.27;55.55;101620.13;4991050;28;20201;-45
2022/07/14 08:43:41;;;;;;;6.40;0.85;;;;;;;20.78;54.54;101618.13;4990792;28;20173;-46
2022/07/14 08:46:06;;;;;;;4.05;0.73;;;;;;;20.08;55.32;101632.72;4990756;28;20169;-45
2022/07/14 08:48:33;;;;;;;1.38;0.82;;;;;;;20.16;57.49;101622.22;4991054;28;20625;-46
2022/07/14 08:50:59;;;;;;;0.98;0.52;;;;;;;20.23;56.52;101616.38;4991048;28;20209;-47
2022/07/14 08:53:26;;;;;;;2.03;0.60;;;;;;;20.50;55.17;101614.50;4991301;28;20669;-46
2022/07/14 08:55:52;;;;;;;3.85;0.80;;;;;;;20.87;54.70;101614.75;4990762;28;20245;-44
2022/07/14 08:58:18;;;;;;;3.42;0.80;;;;;;;21.12;55.65;101602.13;4973463;28;20577;-47
2022/07/14 09:00:43;;;;;;;2.75;1.00;;;;;;;20.96;55.57;101595.03;4991159;28;20541;-46
2022/07/14 09:03:09;;;;;;;4.80;1.02;;;;;;;20.88;55.81;101589.28;4973211;28;20264;-47
2022/07/14 09:05:39;;;;;;;1.75;0.60;;;;;;;19.82;57.47;101601.78;4993342;28;20260;-47
2022/07/14 09:08:04;;;;;;;1.40;0.50;;;;;;;19.88;57.00;101605.97;4994592;28;20586;-44
2022/07/14 09:10:30;;;;;;;2.33;0.57;;;;;;;20.04;58.29;101611.28;4994640;28;20248;-46
2022/07/14 09:13:19;;;;;;;1.95;0.80;;;;;;;20.23;56.68;101597.34;4994318;28;20541;-46
2022/07/14 09:15:47;;;;;;;2.58;0.55;;;;;;;20.23;55.37;101584.59;4994515;28;20589;-44
2022/07/14 09:18:23;;;;;;;1.85;0.40;;;;;;;19.24;52.46;101606.34;4994516;28;20201;-44
2022/07/14 09:20:51;;;;;;;3.47;0.60;;;;;;;19.45;53.27;101597.81;4994271;28;20189;-44
2022/07/14 09:23:29;;;;;;;1.00;0.50;;;;;;;19.69;55.27;101607.16;4994297;28;20540;-46
2022/07/14 09:26:11;;;;;;;2.85;0.50;;;;;;;19.43;56.93;101603.34;4994139;28;20232;-45
2022/07/14 09:28:42;;;;;;;2.28;0.70;;;;;;;19.71;56.93;101598.91;4977295;28;20276;-43
2022/07/14 09:31:40;;;;;;;1.48;0.50;;;;;;;18.87;59.25;101605.00;4994187;28;20260;-46
2022/07/14 09:34:07;;;;;;;2.17;0.65;;;;;;;19.00;57.92;101610.56;4951162;28;20589;-46
2022/07/14 09:36:35;;;;;;;2.80;0.40;;;;;;;18.67;54.84;101604.38;4994186;28;20268;-47
2022/07/14 09:39:09;;;;;;;2.40;0.32;;;;;;;18.78;54.25;101609.16;4993998;28;20221;-45
2022/07/14 09:41:38;;;;;;;3.65;0.60;;;;;;;18.79;55.15;101613.63;4993997;28;20185;-48
2022/07/14 09:44:14;;;;;;;2.65;0.55;;;;;;;19.61;55.59;101600.41;4976541;28;20228;-47
2022/07/14 09:46:58;;;;;;;2.17;0.50;;;;;;;19.86;55.57;101602.47;4993723;28;20182;-47
2022/07/14 09:49:28;;;;;;;2.58;0.50;;;;;;;19.24;56.84;101600.91;4960699;28;20217;-45
2022/07/14 09:52:03;;;;;;;1.55;0.55;;;;;;;19.40;57.32;101600.81;4992416;28;20193;-45
2022/07/14 09:54:46;;;;;;;2.30;0.85;;;;;;;19.57;57.54;101594.31;4993867;28;20180;-47
2022/07/14 09:57:14;;;;;;;5.03;0.80;;;;;;;18.93;59.83;101607.34;4993752;28;20649;-47
2022/07/14 09:59:56;;;;;;;6.38;0.60;;;;;;;18.54;59.93;101600.59;4993330;28;20216;-48
2022/07/14 10:02:29;;;;;;;3.85;0.68;;;;;;;18.72;60.67;101607.66;4993506;28;20650;-46
2022/07/14 10:05:01;;;;;;;2.33;0.40;;;;;;;18.55;59.35;101610.50;4992984;28;20217;-46
2022/07/14 10:07:31;;;;;;;3.28;0.50;;;;;;;18.87;59.12;101608.63;4993544;28;20220;-46
2022/07/14 10:10:05;;;;;;;1.58;0.60;;;;;;;19.58;57.98;101601.50;4993723;28;20205;-47
2022/07/14 10:12:31;;;;;;;1.27;0.60;;;;;;;19.50;57.45;101587.50;4993503;28;20189;-46
2022/07/14 10:15:03;;;;;;;2.72;0.47;;;;;;;19.25;58.59;101599.94;4993207;28;20174;-45
2022/07/14 10:17:30;;;;;;;2.60;0.60;;;;;;;19.22;59.09;101597.41;4959776;28;20525;-47
2022/07/14 10:19:56;;;;;;;3.80;0.75;;;;;;;18.64;59.47;101604.53;4993591;28;20676;-45
2022/07/14 10:22:23;;;;;;;2.92;0.60;;;;;;;18.86;59.09;101603.28;4993798;28;20209;-45
2022/07/14 10:24:50;;;;;;;5.40;0.80;;;;;;;18.99;58.32;101600.69;4992946;28;20197;-45
2022/07/14 10:27:19;;;;;;;1.50;0.55;;;;;;;19.09;58.70;101582.88;4993386;28;20170;-47
2022/07/14 10:29:53;;;;;;;5.03;0.85;;;;;;;19.31;57.30;101574.25;4992822;28;20249;-47
2022/07/14 10:32:43;;;;;;;3.60;0.52;;;;;;;18.92;58.73;101581.19;4993307;28;20636;-47
2022/07/14 10:35:45;;;;;;;2.42;0.50;;;;;;;18.96;58.08;101577.31;4992909;28;20166;-47
2022/07/14 10:38:36;;;;;;;5.40;0.60;;;;;;;19.09;55.70;101574.72;4993208;28;20571;-44
2022/07/14 10:41:14;;;;;;;2.05;0.45;;;;;;;19.09;55.66;101566.56;4972206;28;20233;-47
2022/07/14 10:43:50;;;;;;;1.50;0.47;;;;;;;18.99;58.22;101571.69;5007820;28;20177;-47
2022/07/14 10:46:37;;;;;;;4.03;0.50;;;;;;;19.09;58.69;101567.44;4992943;28;20173;-46
2022/07/14 10:49:06;;;;;;;1.15;0.52;;;;;;;18.87;58.77;101567.88;4992706;28;20213;-46
2022/07/14 10:51:32;;;;;;;3.13;0.68;;;;;;;19.02;60.26;101574.22;4992820;28;20173;-46
2022/07/14 10:54:07;;;;;;;4.13;0.60;;;;;;;19.29;59.78;101566.19;4992657;28;20692;-47
2022/07/14 10:56:33;;;;;;;2.70;0.60;;;;;;;19.11;58.14;101567.31;4992763;28;20211;-47
2022/07/14 10:59:26;;;;;;;4.53;0.57;;;;;;;19.15;58.18;101563.44;4992851;28;20280;-48
2022/07/14 11:02:10;;;;;;;3.95;0.70;;;;;;;18.96;59.89;101561.00;4992928;28;20633;-47
2022/07/14 11:05:04;;;;;;;2.40;0.70;;;;;;;18.67;59.08;101565.47;4992478;28;20173;-47
2022/07/14 11:07:32;;;;;;;3.10;0.60;;;;;;;18.84;58.95;101570.78;4992495;28;20172;-45
2022/07/14 11:09:58;;;;;;;0.45;0.35;;;;;;;19.16;59.99;101565.19;4992618;28;20202;-45
2022/07/14 11:12:24;;;;;;;2.58;0.88;;;;;;;18.89;61.02;101570.47;4992759;28;20225;-46
2022/07/14 11:14:49;;;;;;;2.53;0.47;;;;;;;19.35;59.13;101562.22;4992098;28;20528;-47
2022/07/14 11:17:38;;;;;;;2.60;0.43;;;;;;;18.88;60.10;101553.31;4992785;28;20220;-46
2022/07/14 11:20:08;;;;;;;3.30;0.45;;;;;;;19.21;60.70;101556.75;4991959;28;20214;-48
2022/07/14 11:22:34;;;;;;;3.83;0.63;;;;;;;18.94;58.74;101550.25;4992300;28;20236;-45
2022/07/14 11:25:01;;;;;;;1.63;0.52;;;;;;;19.01;58.47;101563.44;4992078;28;20681;-48
2022/07/14 11:27:30;;;;;;;4.32;0.63;;;;;;;19.08;58.81;101556.66;4991898;28;20211;-46
2022/07/14 11:30:28;;;;;;;1.60;0.60;;;;;;;19.01;59.55;101558.00;4992008;28;20197;-47
2022/07/14 11:33:02;;;;;;;4.15;0.82;;;;;;;18.87;60.70;101556.13;4976772;28;20170;-46
2022/07/14 11:38:28;;;;;;;3.47;0.57;;;;;;;18.76;60.38;101554.06;4991937;28;20253;-49
2022/07/14 11:40:55;;;;;;;3.55;0.75;;;;;;;18.54;61.16;101557.19;4992080;28;20197;-47
2022/07/14 11:43:26;;;;;;;2.50;0.60;;;;;;;18.90;60.02;101537.81;4992063;28;20165;-48
2022/07/14 11:46:00;;;;;;;4.45;0.63;;;;;;;18.81;60.23;101532.97;4991812;28;20256;-48